sensor_id;sensor_type;location;lat;lon;timestamp;pressure;altitude;pressure_sealevel;temperature;humidity
48790;BME280;41718;51.980;5.734;2022-09-09T00:02:27;100645.16;;;13.91;100.00
48790;BME280;41718;51.980;5.734;2022-09-09T00:07:48;100643.41;;;13.87;100.00
48790;BME280;41718;51.980;5.734;2022-09-09T00:23:29;100638.22;;;13.82;100.00
48790;BME280;41718;51.980;5.734;2022-09-09T00:28:32;100633.88;;;13.90;100.00
48790;BME280;41718;51.980;5.734;2022-09-09T00:33:35;100631.28;;;13.81;100.00
48790;BME280;41718;51.980;5.734;2022-09-09T00:38:38;100629.56;;;13.75;100.00
48790;BME280;41718;51.980;5.734;2022-09-09T00:43:42;100625.25;;;13.68;100.00
48790;BME280;41718;51.980;5.734;2022-09-09T00:53:58;100611.38;;;13.56;100.00
48790;BME280;41718;51.980;5.734;2022-09-09T00:59:07;100612.25;;;13.59;100.00
48790;BME280;41718;51.980;5.734;2022-09-09T01:04:14;100607.94;;;13.53;100.00
48790;BME280;41718;51.980;5.734;2022-09-09T01:09:18;100614.84;;;13.58;100.00
48790;BME280;41718;51.980;5.734;2022-09-09T01:19:45;100623.53;;;13.38;100.00
48790;BME280;41718;51.980;5.734;2022-09-09T01:29:54;100621.81;;;13.23;100.00
48790;BME280;41718;51.980;5.734;2022-09-09T01:34:56;100618.34;;;13.23;100.00
48790;BME280;41718;51.980;5.734;2022-09-09T01:39:57;100613.97;;;13.16;100.00
48790;BME280;41718;51.980;5.734;2022-09-09T01:44:58;100607.94;;;13.21;100.00
48790;BME280;41718;51.980;5.734;2022-09-09T01:50:00;100611.34;;;13.16;100.00
48790;BME280;41718;51.980;5.734;2022-09-09T01:55:02;100607.03;;;13.09;100.00
48790;BME280;41718;51.980;5.734;2022-09-09T02:15:26;100600.09;;;12.92;100.00
48790;BME280;41718;51.980;5.734;2022-09-09T02:20:28;100589.72;;;12.98;100.00
48790;BME280;41718;51.980;5.734;2022-09-09T02:25:35;100587.97;;;12.87;100.00
48790;BME280;41718;51.980;5.734;2022-09-09T02:30:37;100586.25;;;12.84;100.00
48790;BME280;41718;51.980;5.734;2022-09-09T02:35:40;100585.38;;;12.78;100.00
48790;BME280;41718;51.980;5.734;2022-09-09T02:40:43;100579.31;;;12.77;100.00
48790;BME280;41718;51.980;5.734;2022-09-09T02:46:08;100582.78;;;12.79;100.00
48790;BME280;41718;51.980;5.734;2022-09-09T02:51:08;100583.66;;;12.84;100.00
48790;BME280;41718;51.980;5.734;2022-09-09T02:56:18;100576.69;;;12.68;100.00
48790;BME280;41718;51.980;5.734;2022-09-09T03:01:21;100581.91;;;12.77;100.00
48790;BME280;41718;51.980;5.734;2022-09-09T03:06:23;100580.16;;;12.65;100.00
48790;BME280;41718;51.980;5.734;2022-09-09T03:11:24;100581.00;;;12.64;100.00
48790;BME280;41718;51.980;5.734;2022-09-09T03:16:25;100586.19;;;12.63;100.00
48790;BME280;41718;51.980;5.734;2022-09-09T03:21:27;100582.75;;;12.65;100.00
48790;BME280;41718;51.980;5.734;2022-09-09T03:26:29;100594.00;;;12.61;100.00
48790;BME280;41718;51.980;5.734;2022-09-09T03:31:31;100589.69;;;12.74;100.00
48790;BME280;41718;51.980;5.734;2022-09-09T03:36:33;100581.03;;;12.81;100.00
48790;BME280;41718;51.980;5.734;2022-09-09T03:41:34;100594.88;;;12.66;100.00
48790;BME280;41718;51.980;5.734;2022-09-09T03:46:36;100575.00;;;12.79;100.00
48790;BME280;41718;51.980;5.734;2022-09-09T03:51:37;100587.09;;;12.79;100.00
48790;BME280;41718;51.980;5.734;2022-09-09T03:56:39;100587.09;;;12.85;100.00
48790;BME280;41718;51.980;5.734;2022-09-09T04:01:42;100585.38;;;12.85;100.00
48790;BME280;41718;51.980;5.734;2022-09-09T04:06:44;100581.03;;;12.87;100.00
48790;BME280;41718;51.980;5.734;2022-09-09T04:11:45;100581.03;;;12.87;100.00
48790;BME280;41718;51.980;5.734;2022-09-09T04:16:47;100564.59;;;12.91;100.00
48790;BME280;41718;51.980;5.734;2022-09-09T04:21:48;100560.28;;;12.92;100.00
48790;BME280;41718;51.980;5.734;2022-09-09T04:26:52;100562.03;;;12.94;100.00
48790;BME280;41718;51.980;5.734;2022-09-09T04:31:54;100557.69;;;12.96;100.00
48790;BME280;41718;51.980;5.734;2022-09-09T04:36:55;100553.38;;;13.05;100.00
48790;BME280;41718;51.980;5.734;2022-09-09T04:41:57;100552.50;;;13.06;100.00
48790;BME280;41718;51.980;5.734;2022-09-09T04:46:59;100561.16;;;13.03;100.00
48790;BME280;41718;51.980;5.734;2022-09-09T04:52:01;100561.16;;;13.06;100.00
48790;BME280;41718;51.980;5.734;2022-09-09T04:57:02;100548.19;;;13.12;100.00
48790;BME280;41718;51.980;5.734;2022-09-09T05:02:04;100538.66;;;13.13;100.00
48790;BME280;41718;51.980;5.734;2022-09-09T05:07:05;100548.16;;;13.20;100.00
48790;BME280;41718;51.980;5.734;2022-09-09T05:12:07;100543.00;;;13.21;100.00
48790;BME280;41718;51.980;5.734;2022-09-09T05:17:09;100548.19;;;13.26;100.00
48790;BME280;41718;51.980;5.734;2022-09-09T05:22:11;100543.00;;;13.24;100.00
48790;BME280;41718;51.980;5.734;2022-09-09T05:27:12;100534.34;;;13.30;100.00
48790;BME280;41718;51.980;5.734;2022-09-09T05:32:14;100533.47;;;13.26;100.00
48790;BME280;41718;51.980;5.734;2022-09-09T05:37:17;100535.19;;;13.32;100.00
48790;BME280;41718;51.980;5.734;2022-09-09T05:42:19;100533.47;;;13.30;100.00
48790;BME280;41718;51.980;5.734;2022-09-09T05:47:20;100532.59;;;13.32;100.00
48790;BME280;41718;51.980;5.734;2022-09-09T05:52:22;100533.47;;;13.39;100.00
48790;BME280;41718;51.980;5.734;2022-09-09T05:57:24;100528.22;;;13.54;100.00
48790;BME280;41718;51.980;5.734;2022-09-09T06:02:26;100535.13;;;13.63;100.00
48790;BME280;41718;51.980;5.734;2022-09-09T06:07:27;100529.91;;;13.73;100.00
48790;BME280;41718;51.980;5.734;2022-09-09T06:12:29;100531.59;;;13.82;100.00
48790;BME280;41718;51.980;5.734;2022-09-09T06:17:30;100535.06;;;13.87;100.00
48790;BME280;41718;51.980;5.734;2022-09-09T06:22:31;100546.28;;;13.89;100.00
48790;BME280;41718;51.980;5.734;2022-09-09T06:27:36;100538.50;;;13.89;100.00
48790;BME280;41718;51.980;5.734;2022-09-09T06:32:46;100547.19;;;13.85;100.00
48790;BME280;41718;51.980;5.734;2022-09-09T06:37:47;100544.53;;;14.02;100.00
48790;BME280;41718;51.980;5.734;2022-09-09T06:42:49;100539.19;;;14.32;100.00
48790;BME280;41718;51.980;5.734;2022-09-09T06:47:51;100544.34;;;14.37;100.00
48790;BME280;41718;51.980;5.734;2022-09-09T06:52:55;100538.25;;;14.49;100.00
48790;BME280;41718;51.980;5.734;2022-09-09T06:57:56;100539.94;;;14.51;100.00
48790;BME280;41718;51.980;5.734;2022-09-09T07:02:58;100548.50;;;14.69;100.00
48790;BME280;41718;51.980;5.734;2022-09-09T07:07:59;100540.75;;;14.64;100.00
48790;BME280;41718;51.980;5.734;2022-09-09T07:13:00;100549.25;;;14.89;100.00
48790;BME280;41718;51.980;5.734;2022-09-09T07:18:18;100546.47;;;15.10;100.00
48790;BME280;41718;51.980;5.734;2022-09-09T07:23:20;100546.50;;;15.06;100.00
48790;BME280;41718;51.980;5.734;2022-09-09T07:28:22;100551.66;;;15.14;100.00
48790;BME280;41718;51.980;5.734;2022-09-09T07:33:24;100551.53;;;15.27;100.00
48790;BME280;41718;51.980;5.734;2022-09-09T07:38:26;100557.63;;;15.28;100.00
48790;BME280;41718;51.980;5.734;2022-09-09T07:43:27;100561.22;;;15.15;100.00
48790;BME280;41718;51.980;5.734;2022-09-09T07:48:29;100575.16;;;15.06;100.00
48790;BME280;41718;51.980;5.734;2022-09-09T07:53:30;100582.94;;;15.15;100.00
48790;BME280;41718;51.980;5.734;2022-09-09T07:58:32;100581.97;;;15.24;100.00
48790;BME280;41718;51.980;5.734;2022-09-09T08:03:38;100583.81;;;15.11;100.00
48790;BME280;41718;51.980;5.734;2022-09-09T08:08:40;100580.25;;;15.20;100.00
48790;BME280;41718;51.980;5.734;2022-09-09T08:13:43;100568.97;;;15.21;100.00
48790;BME280;41718;51.980;5.734;2022-09-09T08:18:44;100573.31;;;15.22;100.00
48790;BME280;41718;51.980;5.734;2022-09-09T08:23:46;100586.31;;;15.23;100.00
48790;BME280;41718;51.980;5.734;2022-09-09T08:28:49;100583.63;;;15.31;100.00
48790;BME280;41718;51.980;5.734;2022-09-09T08:33:52;100587.03;;;15.41;100.00
48790;BME280;41718;51.980;5.734;2022-09-09T08:38:54;100588.72;;;15.46;100.00
48790;BME280;41718;51.980;5.734;2022-09-09T08:54:30;100599.97;;;15.48;100.00
48790;BME280;41718;51.980;5.734;2022-09-09T08:59:52;100608.63;;;15.55;100.00
48790;BME280;41718;51.980;5.734;2022-09-09T09:15:31;100621.47;;;15.79;100.00
48790;BME280;41718;51.980;5.734;2022-09-09T09:25:59;100618.06;;;15.70;100.00
48790;BME280;41718;51.980;5.734;2022-09-09T09:31:05;100617.16;;;15.74;100.00
48790;BME280;41718;51.980;5.734;2022-09-09T09:36:07;100615.44;;;15.71;100.00
48790;BME280;41718;51.980;5.734;2022-09-09T09:41:09;100620.56;;;15.83;100.00
48790;BME280;41718;51.980;5.734;2022-09-09T09:46:19;100607.13;;;16.19;100.00
48790;BME280;41718;51.980;5.734;2022-09-09T09:51:21;100607.66;;;16.45;100.00
48790;BME280;41718;51.980;5.734;2022-09-09T09:56:29;100603.50;;;16.29;100.00
48790;BME280;41718;51.980;5.734;2022-09-09T10:01:32;100599.16;;;16.29;100.00
48790;BME280;41718;51.980;5.734;2022-09-09T10:06:42;100607.78;;;16.34;100.00
48790;BME280;41718;51.980;5.734;2022-09-09T10:11:44;100600.13;;;16.21;100.00
48790;BME280;41718;51.980;5.734;2022-09-09T10:27:01;100602.81;;;16.14;100.00
48790;BME280;41718;51.980;5.734;2022-09-09T10:32:14;100609.66;;;16.22;100.00
48790;BME280;41718;51.980;5.734;2022-09-09T10:42:38;100619.44;;;16.06;100.00
48790;BME280;41718;51.980;5.734;2022-09-09T10:57:53;100636.22;;;15.82;100.00
48790;BME280;41718;51.980;5.734;2022-09-09T11:02:56;100637.97;;;15.80;100.00
48790;BME280;41718;51.980;5.734;2022-09-09T11:07:58;100638.84;;;15.80;100.00
48790;BME280;41718;51.980;5.734;2022-09-09T11:13:05;100642.34;;;15.78;100.00
48790;BME280;41718;51.980;5.734;2022-09-09T11:18:14;100654.75;;;15.47;100.00
48790;BME280;41718;51.980;5.734;2022-09-09T11:23:21;100646.91;;;15.48;100.00
48790;BME280;41718;51.980;5.734;2022-09-09T11:38:51;100620.53;;;16.57;100.00
48790;BME280;41718;51.980;5.734;2022-09-09T11:43:53;100614.75;;;16.35;100.00
48790;BME280;41718;51.980;5.734;2022-09-09T11:49:00;100614.69;;;16.40;100.00
48790;BME280;41718;51.980;5.734;2022-09-09T11:59:26;100611.44;;;16.20;100.00
48790;BME280;41718;51.980;5.734;2022-09-09T12:09:36;100612.28;;;16.22;100.00
48790;BME280;41718;51.980;5.734;2022-09-09T12:19:44;100611.31;;;16.30;100.00
48790;BME280;41718;51.980;5.734;2022-09-09T12:24:54;100624.53;;;16.18;100.00
48790;BME280;41718;51.980;5.734;2022-09-09T12:30:03;100628.88;;;16.16;100.00
48790;BME280;41718;51.980;5.734;2022-09-09T12:35:11;100625.09;;;16.41;100.00
48790;BME280;41718;51.980;5.734;2022-09-09T12:40:30;100614.56;;;16.48;100.00
48790;BME280;41718;51.980;5.734;2022-09-09T12:45:33;100606.88;;;16.37;100.00
48790;BME280;41718;51.980;5.734;2022-09-09T12:50:46;100603.44;;;16.35;100.00
48790;BME280;41718;51.980;5.734;2022-09-09T12:55:55;100588.50;;;16.46;100.00
48790;BME280;41718;51.980;5.734;2022-09-09T13:00:57;100593.56;;;16.57;100.00
48790;BME280;41718;51.980;5.734;2022-09-09T13:06:11;100583.69;;;16.80;100.00
48790;BME280;41718;51.980;5.734;2022-09-09T13:11:15;100579.41;;;16.75;100.00
48790;BME280;41718;51.980;5.734;2022-09-09T13:16:19;100584.31;;;16.94;100.00
48790;BME280;41718;51.980;5.734;2022-09-09T13:21:32;100583.69;;;16.80;100.00
48790;BME280;41718;51.980;5.734;2022-09-09T13:26:37;100587.19;;;16.78;100.00
48790;BME280;41718;51.980;5.734;2022-09-09T13:31:39;100583.63;;;16.85;100.00
48790;BME280;41718;51.980;5.734;2022-09-09T13:36:41;100581.97;;;16.78;100.00
48790;BME280;41718;51.980;5.734;2022-09-09T13:41:43;100582.06;;;16.70;100.00
48790;BME280;41718;51.980;5.734;2022-09-09T13:46:45;100572.94;;;16.99;100.00
48790;BME280;41718;51.980;5.734;2022-09-09T13:51:50;100565.81;;;17.08;100.00
48790;BME280;41718;51.980;5.734;2022-09-09T13:56:53;100568.44;;;17.08;100.00
48790;BME280;41718;51.980;5.734;2022-09-09T14:01:55;100566.28;;;17.32;100.00
48790;BME280;41718;51.980;5.734;2022-09-09T14:06:57;100555.06;;;17.23;100.00
48790;BME280;41718;51.980;5.734;2022-09-09T14:12:00;100557.72;;;17.22;100.00
48790;BME280;41718;51.980;5.734;2022-09-09T14:17:01;100572.97;;;16.97;100.00
48790;BME280;41718;51.980;5.734;2022-09-09T14:22:08;100577.41;;;16.92;100.00
48790;BME280;41718;51.980;5.734;2022-09-09T14:27:09;100584.34;;;16.93;100.00
48790;BME280;41718;51.980;5.734;2022-09-09T14:32:11;100588.84;;;16.83;100.00
48790;BME280;41718;51.980;5.734;2022-09-09T14:37:13;100580.84;;;16.94;100.00
48790;BME280;41718;51.980;5.734;2022-09-09T14:42:14;100575.38;;;17.09;100.00
48790;BME280;41718;51.980;5.734;2022-09-09T14:47:16;100561.94;;;17.31;100.00
48790;BME280;41718;51.980;5.734;2022-09-09T14:52:17;100569.91;;;17.23;100.00
48790;BME280;41718;51.980;5.734;2022-09-09T14:57:18;100566.47;;;17.21;100.00
48790;BME280;41718;51.980;5.734;2022-09-09T15:02:20;100551.88;;;17.06;100.00
48790;BME280;41718;51.980;5.734;2022-09-09T15:07:22;100561.00;;;16.82;100.00
48790;BME280;41718;51.980;5.734;2022-09-09T15:12:23;100560.47;;;16.57;100.00
48790;BME280;41718;51.980;5.734;2022-09-09T15:17:31;100570.28;;;16.40;100.00
48790;BME280;41718;51.980;5.734;2022-09-09T15:22:32;100576.59;;;16.22;100.00
48790;BME280;41718;51.980;5.734;2022-09-09T15:27:37;100585.38;;;16.18;100.00
48790;BME280;41718;51.980;5.734;2022-09-09T15:32:40;100586.09;;;16.28;100.00
48790;BME280;41718;51.980;5.734;2022-09-09T15:37:41;100578.56;;;16.05;100.00
48790;BME280;41718;51.980;5.734;2022-09-09T15:42:42;100566.28;;;16.13;100.00
48790;BME280;41718;51.980;5.734;2022-09-09T15:47:47;100568.78;;;16.21;100.00
48790;BME280;41718;51.980;5.734;2022-09-09T15:52:48;100573.34;;;16.06;100.00
48790;BME280;41718;51.980;5.734;2022-09-09T15:57:49;100581.97;;;16.11;100.00
48790;BME280;41718;51.980;5.734;2022-09-09T16:02:53;100574.84;;;16.24;100.00
48790;BME280;41718;51.980;5.734;2022-09-09T16:07:54;100577.53;;;16.18;100.00
48790;BME280;41718;51.980;5.734;2022-09-09T16:12:56;100580.91;;;16.26;100.00
48790;BME280;41718;51.980;5.734;2022-09-09T16:17:57;100593.13;;;16.24;100.00
48790;BME280;41718;51.980;5.734;2022-09-09T16:22:59;100587.75;;;16.33;100.00
48790;BME280;41718;51.980;5.734;2022-09-09T16:28:02;100598.22;;;16.32;100.00
48790;BME280;41718;51.980;5.734;2022-09-09T16:33:04;100592.16;;;16.31;100.00
48790;BME280;41718;51.980;5.734;2022-09-09T16:38:05;100601.75;;;16.28;100.00
48790;BME280;41718;51.980;5.734;2022-09-09T16:43:08;100605.09;;;16.39;100.00
48790;BME280;41718;51.980;5.734;2022-09-09T16:48:12;100615.69;;;16.28;100.00
48790;BME280;41718;51.980;5.734;2022-09-09T16:53:13;100614.75;;;16.35;100.00
48790;BME280;41718;51.980;5.734;2022-09-09T16:58:16;100618.47;;;16.14;100.00
48790;BME280;41718;51.980;5.734;2022-09-09T17:03:17;100614.03;;;16.23;100.00
48790;BME280;41718;51.980;5.734;2022-09-09T17:08:18;100616.75;;;16.10;100.00
48790;BME280;41718;51.980;5.734;2022-09-09T17:13:20;100617.84;;;15.94;100.00
48790;BME280;41718;51.980;5.734;2022-09-09T17:18:21;100603.94;;;15.90;100.00
48790;BME280;41718;51.980;5.734;2022-09-09T17:23:23;100607.63;;;15.71;100.00
48790;BME280;41718;51.980;5.734;2022-09-09T17:28:25;100607.56;;;15.76;100.00
48790;BME280;41718;51.980;5.734;2022-09-09T17:33:32;100615.63;;;15.50;100.00
48790;BME280;41718;51.980;5.734;2022-09-09T17:38:34;100619.19;;;15.40;100.00
48790;BME280;41718;51.980;5.734;2022-09-09T17:43:35;100628.78;;;15.37;100.00
48790;BME280;41718;51.980;5.734;2022-09-09T17:48:39;100635.84;;;15.26;100.00
48790;BME280;41718;51.980;5.734;2022-09-09T17:53:44;100639.34;;;15.21;100.00
48790;BME280;41718;51.980;5.734;2022-09-09T17:58:47;100652.38;;;15.21;100.00
48790;BME280;41718;51.980;5.734;2022-09-09T18:03:51;100649.84;;;15.08;100.00
48790;BME280;41718;51.980;5.734;2022-09-09T18:08:53;100648.13;;;15.06;100.00
48790;BME280;41718;51.980;5.734;2022-09-09T18:13:55;100655.94;;;15.06;100.00
48790;BME280;41718;51.980;5.734;2022-09-09T18:18:57;100661.19;;;15.01;100.00
48790;BME280;41718;51.980;5.734;2022-09-09T18:24:02;100663.75;;;15.06;100.00
48790;BME280;41718;51.980;5.734;2022-09-09T18:29:06;100666.41;;;15.00;100.00
48790;BME280;41718;51.980;5.734;2022-09-09T18:34:09;100676.00;;;14.92;100.00
48790;BME280;41718;51.980;5.734;2022-09-09T18:39:12;100681.19;;;14.96;100.00
48790;BME280;41718;51.980;5.734;2022-09-09T18:44:16;100689.91;;;14.89;100.00
48790;BME280;41718;51.980;5.734;2022-09-09T18:49:18;100690.81;;;14.82;100.00
48790;BME280;41718;51.980;5.734;2022-09-09T18:54:22;100685.63;;;14.74;100.00
48790;BME280;41718;51.980;5.734;2022-09-09T18:59:26;100684.78;;;14.72;100.00
48790;BME280;41718;51.980;5.734;2022-09-09T19:04:29;100691.75;;;14.67;100.00
48790;BME280;41718;51.980;5.734;2022-09-09T19:09:33;100695.25;;;14.65;100.00
48790;BME280;41718;51.980;5.734;2022-09-09T19:14:35;100704.81;;;14.60;100.00
48790;BME280;41718;51.980;5.734;2022-09-09T19:19:39;100703.06;;;14.60;100.00
48790;BME280;41718;51.980;5.734;2022-09-09T19:24:42;100708.31;;;14.51;100.00
48790;BME280;41718;51.980;5.734;2022-09-09T19:29:45;100710.91;;;14.54;100.00
48790;BME280;41718;51.980;5.734;2022-09-09T19:34:48;100715.22;;;14.56;100.00
48790;BME280;41718;51.980;5.734;2022-09-09T19:39:54;100723.03;;;14.56;100.00
48790;BME280;41718;51.980;5.734;2022-09-09T19:44:58;100730.88;;;14.55;100.00
48790;BME280;41718;51.980;5.734;2022-09-09T19:50:02;100744.72;;;14.57;100.00
48790;BME280;41718;51.980;5.734;2022-09-09T19:55:05;100729.13;;;14.60;100.00
48790;BME280;41718;51.980;5.734;2022-09-09T20:00:07;100744.72;;;14.57;100.00
48790;BME280;41718;51.980;5.734;2022-09-09T20:05:09;100744.75;;;14.58;100.00
48790;BME280;41718;51.980;5.734;2022-09-09T20:10:10;100739.47;;;14.68;100.00
48790;BME280;41718;51.980;5.734;2022-09-09T20:15:12;100736.91;;;14.65;100.00
48790;BME280;41718;51.980;5.734;2022-09-09T20:20:13;100739.53;;;14.57;100.00
48790;BME280;41718;51.980;5.734;2022-09-09T20:25:14;100738.69;;;14.53;100.00
48790;BME280;41718;51.980;5.734;2022-09-09T20:30:16;100748.25;;;14.48;100.00
48790;BME280;41718;51.980;5.734;2022-09-09T20:35:17;100749.94;;;14.46;100.00
48790;BME280;41718;51.980;5.734;2022-09-09T20:40:19;100749.09;;;14.50;100.00
48790;BME280;41718;51.980;5.734;2022-09-09T20:45:20;100754.28;;;14.50;100.00
48790;BME280;41718;51.980;5.734;2022-09-09T20:50:22;100743.00;;;14.39;100.00
48790;BME280;41718;51.980;5.734;2022-09-09T20:55:24;100747.34;;;14.43;100.00
48790;BME280;41718;51.980;5.734;2022-09-09T21:00:26;100751.72;;;14.47;100.00
48790;BME280;41718;51.980;5.734;2022-09-09T21:05:30;100749.97;;;14.34;100.00
48790;BME280;41718;51.980;5.734;2022-09-09T21:10:32;100745.63;;;14.38;100.00
48790;BME280;41718;51.980;5.734;2022-09-09T21:15:33;100750.81;;;14.35;100.00
48790;BME280;41718;51.980;5.734;2022-09-09T21:20:35;100758.63;;;14.39;100.00
48790;BME280;41718;51.980;5.734;2022-09-09T21:25:38;100759.50;;;14.43;100.00
48790;BME280;41718;51.980;5.734;2022-09-09T21:30:39;100759.50;;;14.40;100.00
48790;BME280;41718;51.980;5.734;2022-09-09T21:35:44;100758.63;;;14.42;100.00
48790;BME280;41718;51.980;5.734;2022-09-09T21:40:46;100758.63;;;14.41;100.00
48790;BME280;41718;51.980;5.734;2022-09-09T21:45:50;100756.06;;;14.36;100.00
48790;BME280;41718;51.980;5.734;2022-09-09T21:50:51;100752.59;;;14.26;100.00
48790;BME280;41718;51.980;5.734;2022-09-09T21:55:58;100760.41;;;14.26;100.00
48790;BME280;41718;51.980;5.734;2022-09-09T22:01:00;100756.06;;;14.27;100.00
48790;BME280;41718;51.980;5.734;2022-09-09T22:06:03;100745.66;;;14.22;100.00
48790;BME280;41718;51.980;5.734;2022-09-09T22:11:06;100749.16;;;14.18;100.00
48790;BME280;41718;51.980;5.734;2022-09-09T22:16:08;100746.53;;;14.15;100.00
48790;BME280;41718;51.980;5.734;2022-09-09T22:21:14;100748.28;;;14.07;100.00
48790;BME280;41718;51.980;5.734;2022-09-09T22:26:16;100746.56;;;14.03;100.00
48790;BME280;41718;51.980;5.734;2022-09-09T22:31:18;100750.03;;;14.02;100.00
48790;BME280;41718;51.980;5.734;2022-09-09T22:36:21;100750.03;;;14.03;100.00
48790;BME280;41718;51.980;5.734;2022-09-09T22:41:22;100743.09;;;13.99;100.00
48790;BME280;41718;51.980;5.734;2022-09-09T22:46:25;100743.09;;;13.99;100.00
48790;BME280;41718;51.980;5.734;2022-09-09T22:51:27;100742.22;;;13.99;100.00
48790;BME280;41718;51.980;5.734;2022-09-09T22:56:28;100746.56;;;13.97;100.00
48790;BME280;41718;51.980;5.734;2022-09-09T23:01:30;100743.09;;;13.93;100.00
48790;BME280;41718;51.980;5.734;2022-09-09T23:06:32;100747.41;;;13.94;100.00
48790;BME280;41718;51.980;5.734;2022-09-09T23:11:34;100752.66;;;13.96;100.00
48790;BME280;41718;51.980;5.734;2022-09-09T23:16:38;100756.09;;;13.95;100.00
48790;BME280;41718;51.980;5.734;2022-09-09T23:21:40;100761.28;;;13.99;100.00
48790;BME280;41718;51.980;5.734;2022-09-09T23:26:42;100761.28;;;14.04;100.00
48790;BME280;41718;51.980;5.734;2022-09-09T23:31:45;100761.28;;;14.09;100.00
48790;BME280;41718;51.980;5.734;2022-09-09T23:36:46;100758.69;;;14.13;100.00
48790;BME280;41718;51.980;5.734;2022-09-09T23:41:48;100772.56;;;14.14;100.00
48790;BME280;41718;51.980;5.734;2022-09-09T23:46:50;100777.75;;;14.17;100.00
48790;BME280;41718;51.980;5.734;2022-09-09T23:51:51;100776.03;;;14.16;100.00
48790;BME280;41718;51.980;5.734;2022-09-09T23:56:53;100773.41;;;14.16;100.00
